Time;durP1;ratioP1;P1;durP2;ratioP2;P2;SDS_P1;SDS_P2;PMS_P1;PMS_P2;Temp;Humidity;BMP_temperature;BMP_pressure;BME280_temperature;BME280_humidity;BME280_pressure;Samples;Min_cycle;Max_cycle;Signal;HPM_P1;HPM_P2
2022/12/21 00:02:04;;;;;;;72.18;35.30;;;-2.20;99.90;;;;;;5033699;28;20068;-77
2022/12/21 00:04:30;;;;;;;86.60;40.88;;;-2.20;99.90;;;;;;5033722;28;20021;-77
2022/12/21 00:06:56;;;;;;;79.63;36.83;;;-2.30;99.90;;;;;;5032103;28;20068;-78
2022/12/21 00:09:23;;;;;;;83.38;40.17;;;-2.30;99.90;;;;;;5032322;28;20021;-78
2022/12/21 00:11:48;;;;;;;80.70;37.35;;;-2.30;99.90;;;;;;5033574;28;20056;-79
2022/12/21 00:14:14;;;;;;;76.60;36.30;;;-2.30;99.90;;;;;;5033489;28;20041;-79
2022/12/21 00:16:41;;;;;;;80.85;38.17;;;-2.30;99.90;;;;;;5050213;28;20064;-77
2022/12/21 00:19:07;;;;;;;101.03;43.80;;;-2.40;99.90;;;;;;5051845;28;20025;-79
2022/12/21 00:21:35;;;;;;;85.70;40.50;;;-2.40;99.90;;;;;;5051996;28;20038;-77
2022/12/21 00:24:01;;;;;;;73.03;38.10;;;-2.40;99.90;;;;;;5053297;28;20090;-77
2022/12/21 00:26:29;;;;;;;76.00;34.97;;;-2.40;99.90;;;;;;5053226;28;20096;-79
2022/12/21 00:28:56;;;;;;;86.10;38.03;;;-2.50;99.90;;;;;;5053177;28;20547;-79
2022/12/21 00:31:25;;;;;;;72.85;33.17;;;-2.40;99.90;;;;;;5053117;28;20029;-78
2022/12/21 00:33:51;;;;;;;73.95;36.75;;;-2.40;99.90;;;;;;5051829;28;20037;-77
2022/12/21 00:36:18;;;;;;;76.75;36.40;;;-2.40;99.90;;;;;;5051880;28;20024;-78
2022/12/21 00:38:46;;;;;;;76.70;34.03;;;-2.50;99.90;;;;;;5053134;28;20025;-78
2022/12/21 00:41:13;;;;;;;74.93;32.88;;;-2.50;99.90;;;;;;5053095;28;20029;-79
2022/12/21 00:43:42;;;;;;;77.70;34.25;;;-2.50;99.90;;;;;;5053122;28;20021;-78
2022/12/21 00:46:14;;;;;;;73.13;33.80;;;-2.50;99.90;;;;;;5052957;28;20052;-78
2022/12/21 00:48:39;;;;;;;76.00;35.20;;;-2.50;99.90;;;;;;5053089;28;20024;-79
2022/12/21 00:51:12;;;;;;;80.35;36.13;;;-2.50;99.90;;;;;;5052867;28;20103;-78
2022/12/21 00:53:38;;;;;;;75.93;32.53;;;-2.50;99.90;;;;;;5048298;28;20026;-79
2022/12/21 00:56:06;;;;;;;74.18;33.58;;;-2.50;99.90;;;;;;5032345;28;20219;-77
2022/12/21 00:58:33;;;;;;;76.90;34.05;;;-2.50;99.90;;;;;;5031644;28;20065;-77
2022/12/21 01:01:03;;;;;;;74.40;36.45;;;-2.50;99.90;;;;;;5031555;28;20043;-78
2022/12/21 01:03:29;;;;;;;74.53;34.75;;;-2.60;99.90;;;;;;5031778;28;20022;-77
2022/12/21 01:05:54;;;;;;;73.28;36.30;;;-2.60;99.90;;;;;;5031598;28;20087;-77
2022/12/21 01:08:22;;;;;;;82.53;36.90;;;-2.60;99.90;;;;;;5031662;28;20029;-78
2022/12/21 01:10:47;;;;;;;67.55;34.40;;;-2.70;99.90;;;;;;5031472;28;20017;-78
2022/12/21 01:13:14;;;;;;;76.95;37.00;;;-2.70;99.90;;;;;;5033128;28;20036;-78
2022/12/21 01:15:44;;;;;;;71.18;35.50;;;-2.70;99.90;;;;;;5047032;28;20033;-78
2022/12/21 01:18:12;;;;;;;78.93;36.75;;;-2.70;99.90;;;;;;5056705;28;20497;-78
2022/12/21 01:20:46;;;;;;;75.35;35.83;;;-2.70;99.90;;;;;;5055276;28;20045;-78
2022/12/21 01:23:11;;;;;;;75.20;36.28;;;-2.70;99.90;;;;;;5056536;28;20021;-78
2022/12/21 01:25:37;;;;;;;80.82;37.35;;;-2.80;99.90;;;;;;5056758;28;20115;-77
2022/12/21 01:28:03;;;;;;;79.78;38.38;;;-2.80;99.90;;;;;;5055245;28;20017;-77
2022/12/21 01:30:29;;;;;;;77.13;37.72;;;-2.90;99.90;;;;;;5055236;28;20021;-78
2022/12/21 01:32:54;;;;;;;92.43;46.58;;;-2.90;99.90;;;;;;5055000;28;20087;-78
2022/12/21 01:35:20;;;;;;;109.20;56.78;;;-2.90;99.90;;;;;;5056518;28;20071;-77
2022/12/21 01:37:46;;;;;;;183.40;93.85;;;-3.00;99.90;;;;;;5056327;28;20013;-78
2022/12/21 01:40:12;;;;;;;126.20;63.30;;;-3.00;99.90;;;;;;5056444;28;20025;-79
2022/12/21 01:42:37;;;;;;;83.00;41.75;;;-3.00;99.90;;;;;;5056440;28;20028;-77
2022/12/21 01:45:05;;;;;;;78.38;38.05;;;-3.00;99.90;;;;;;5055003;28;20382;-78
2022/12/21 01:48:01;;;;;;;90.13;45.38;;;-2.90;99.90;;;;;;5056240;28;20031;-79
2022/12/21 01:50:56;;;;;;;97.53;41.83;;;-2.90;99.90;;;;;;5054969;28;20025;-78
2022/12/21 01:53:29;;;;;;;90.05;41.28;;;-2.90;99.90;;;;;;5051463;28;20411;-77
2022/12/21 01:55:57;;;;;;;85.13;38.28;;;-2.90;99.90;;;;;;5034887;28;20025;-79
2022/12/21 01:58:25;;;;;;;81.82;37.05;;;-2.90;99.90;;;;;;5034682;28;20554;-79
2022/12/21 02:00:51;;;;;;;82.43;37.95;;;-2.90;99.90;;;;;;5034817;28;20433;-79
2022/12/21 02:03:21;;;;;;;76.95;38.78;;;-2.90;99.90;;;;;;5035897;28;20021;-77
2022/12/21 02:06:28;;;;;;;78.90;37.55;;;-2.90;99.90;;;;;;5034682;28;20507;-78
2022/12/21 02:08:54;;;;;;;81.40;38.17;;;-2.90;99.90;;;;;;5035502;28;20068;-79
2022/12/21 02:11:21;;;;;;;85.82;42.10;;;-2.90;99.90;;;;;;5034508;28;20071;-79
2022/12/21 02:13:46;;;;;;;102.35;51.78;;;-2.90;99.90;;;;;;5035590;28;20494;-77
2022/12/21 02:16:26;;;;;;;97.28;50.80;;;-3.00;99.90;;;;;;5049436;28;20120;-79
2022/12/21 02:19:18;;;;;;;101.30;49.80;;;-3.00;99.90;;;;;;5055589;28;20066;-78
2022/12/21 02:21:46;;;;;;;82.70;41.08;;;-3.00;99.90;;;;;;5055470;28;20032;-77
2022/12/21 02:24:33;;;;;;;78.43;37.58;;;-3.10;99.90;;;;;;5052835;28;20024;-77
2022/12/21 02:27:18;;;;;;;78.95;35.75;;;-3.10;99.90;;;;;;5054222;28;20029;-77
2022/12/21 02:29:43;;;;;;;78.80;36.97;;;-3.10;99.90;;;;;;5055466;28;20040;-78
2022/12/21 02:32:12;;;;;;;90.35;39.95;;;-3.10;99.90;;;;;;5055094;28;20056;-77
2022/12/21 02:34:56;;;;;;;83.43;40.60;;;-3.10;99.90;;;;;;5054000;28;20033;-77
2022/12/21 02:37:35;;;;;;;;;;;-3.00;99.90;;;;;;5055710;28;20060;-78
2022/12/21 02:40:11;;;;;;;82.60;38.90;;;-3.10;99.90;;;;;;5055129;28;19904;-77
2022/12/21 02:45:53;;;;;;;79.47;36.75;;;-3.10;99.90;;;;;;5055474;28;20513;-78
2022/12/21 02:48:40;;;;;;;81.60;39.47;;;-3.00;99.90;;;;;;5053830;28;20017;-78
2022/12/21 02:51:13;;;;;;;85.25;38.95;;;-3.00;99.90;;;;;;5053623;28;20022;-77
2022/12/21 02:53:39;;;;;;;79.30;39.45;;;-3.00;99.90;;;;;;5050189;28;20079;-78
2022/12/21 02:56:13;;;;;;;85.00;38.20;;;-3.00;99.90;;;;;;5034989;28;20101;-79
2022/12/21 02:58:39;;;;;;;85.55;37.92;;;-2.90;99.90;;;;;;5035012;28;20025;-77
2022/12/21 03:01:39;;;;;;;81.32;40.78;;;-3.00;99.90;;;;;;5033597;28;20029;-76
2022/12/21 03:04:32;;;;;;;82.70;36.58;;;-3.00;99.90;;;;;;5034847;28;20028;-77
2022/12/21 03:07:40;;;;;;;79.97;38.70;;;-3.00;99.90;;;;;;5034943;28;20463;-78
2022/12/21 03:10:25;;;;;;;83.85;39.90;;;-3.00;99.90;;;;;;5033546;28;20017;-78
2022/12/21 03:12:56;;;;;;;82.07;39.33;;;-3.00;99.90;;;;;;5034576;28;20038;-78
2022/12/21 03:15:30;;;;;;;79.50;38.85;;;-3.10;99.90;;;;;;5042958;28;20022;-78
2022/12/21 03:18:01;;;;;;;80.88;37.28;;;-3.10;99.90;;;;;;5054451;28;20104;-77
2022/12/21 03:20:58;;;;;;;83.40;38.45;;;-3.10;99.90;;;;;;5052952;28;20075;-77
2022/12/21 03:23:50;;;;;;;83.50;38.20;;;-3.20;99.90;;;;;;5054382;28;20104;-78
2022/12/21 03:26:28;;;;;;;79.88;35.08;;;-3.20;99.90;;;;;;5054538;28;20033;-79
2022/12/21 03:28:57;;;;;;;86.25;40.15;;;-3.20;99.90;;;;;;5053061;28;20033;-78
2022/12/21 03:31:28;;;;;;;83.13;39.53;;;-3.30;99.90;;;;;;5054338;28;20102;-78
2022/12/21 03:34:02;;;;;;;85.40;38.70;;;-3.30;99.90;;;;;;5054213;28;20108;-78
2022/12/21 03:36:39;;;;;;;82.07;36.45;;;-3.40;99.90;;;;;;5053860;28;20029;-77
2022/12/21 03:39:10;;;;;;;73.25;34.13;;;-3.40;99.90;;;;;;5054115;28;20505;-79
2022/12/21 03:41:42;;;;;;;74.68;36.05;;;-3.40;99.90;;;;;;5052675;28;20036;-78
2022/12/21 03:44:12;;;;;;;82.40;37.80;;;-3.50;99.90;;;;;;5052545;28;20036;-79
2022/12/21 03:46:47;;;;;;;82.07;35.60;;;-3.50;99.90;;;;;;5052731;28;20497;-77
2022/12/21 03:49:24;;;;;;;80.25;36.28;;;-3.50;99.90;;;;;;5052596;28;20049;-78
2022/12/21 03:51:54;;;;;;;83.55;40.92;;;-3.50;99.90;;;;;;5052582;28;20025;-77
2022/12/21 03:54:32;;;;;;;72.85;36.00;;;-3.50;99.90;;;;;;5052463;28;20037;-77
2022/12/21 03:56:58;;;;;;;75.97;35.00;;;-3.50;99.90;;;;;;5053790;28;20025;-78
2022/12/21 03:59:24;;;;;;;70.38;35.22;;;-3.50;99.90;;;;;;5053624;28;20027;-77
2022/12/21 04:02:27;;;;;;;73.53;35.38;;;-3.50;99.90;;;;;;5052218;28;20112;-78
2022/12/21 04:05:05;;;;;;;81.53;38.05;;;-3.50;99.90;;;;;;5053785;28;20374;-78
2022/12/21 04:07:33;;;;;;;71.10;34.65;;;-3.40;99.90;;;;;;5053627;28;20033;-79
2022/12/21 04:10:00;;;;;;;77.85;36.65;;;-3.40;99.90;;;;;;5052186;28;20079;-79
2022/12/21 04:12:36;;;;;;;88.25;38.67;;;-3.50;99.90;;;;;;5052871;28;20064;-77
2022/12/21 04:15:05;;;;;;;77.95;34.50;;;-3.40;99.90;;;;;;5052016;28;20018;-79
2022/12/21 04:17:31;;;;;;;73.78;34.00;;;-3.40;99.90;;;;;;5052142;28;20125;-78
2022/12/21 04:19:59;;;;;;;74.28;37.90;;;-3.40;99.90;;;;;;5053362;28;20506;-79
2022/12/21 04:28:10;;;;;;;82.75;39.33;;;-3.30;99.90;;;;;;5053571;28;20090;-77
2022/12/21 04:30:41;;;;;;;81.00;39.35;;;-3.30;99.90;;;;;;5051891;28;20368;-77
2022/12/21 04:33:10;;;;;;;81.65;38.63;;;-3.30;99.90;;;;;;5051880;28;20033;-77
2022/12/21 04:35:36;;;;;;;86.35;38.67;;;-3.30;99.90;;;;;;5053184;28;20452;-77
2022/12/21 04:38:03;;;;;;;78.18;37.50;;;-3.30;99.90;;;;;;5051943;28;20017;-78
2022/12/21 04:40:29;;;;;;;89.57;43.35;;;-3.30;99.90;;;;;;5053213;28;20428;-77
2022/12/21 04:42:55;;;;;;;84.00;40.55;;;-3.30;99.90;;;;;;5053144;28;20067;-78
2022/12/21 04:45:20;;;;;;;69.47;34.13;;;-3.30;99.90;;;;;;5051758;28;20049;-78
2022/12/21 04:47:46;;;;;;;85.38;38.17;;;-3.30;99.90;;;;;;5051026;28;20024;-77
2022/12/21 04:50:12;;;;;;;76.70;34.50;;;-3.30;99.90;;;;;;5051562;28;20030;-78
2022/12/21 04:52:38;;;;;;;73.82;34.53;;;-3.30;99.90;;;;;;5048214;28;20029;-78
2022/12/21 04:55:04;;;;;;;72.57;33.92;;;-3.40;99.90;;;;;;5031660;28;20029;-77
2022/12/21 04:57:30;;;;;;;73.95;34.22;;;-3.40;99.90;;;;;;5033050;28;20022;-77
2022/12/21 04:59:56;;;;;;;81.70;37.28;;;-3.40;99.90;;;;;;5031618;28;20490;-78
2022/12/21 05:02:22;;;;;;;65.00;33.85;;;-3.40;99.90;;;;;;5047487;28;20029;-78
2022/12/21 05:04:48;;;;;;;75.78;36.60;;;-3.40;99.90;;;;;;5051511;28;20021;-77
2022/12/21 05:07:14;;;;;;;68.55;32.75;;;-3.30;99.90;;;;;;5052899;28;20025;-78
2022/12/21 05:09:39;;;;;;;76.80;35.85;;;-3.30;99.90;;;;;;5051502;28;20033;-78
2022/12/21 05:12:05;;;;;;;73.88;36.30;;;-3.20;99.90;;;;;;5051406;28;20021;-77
2022/12/21 05:14:31;;;;;;;81.78;40.47;;;-3.20;99.90;;;;;;5052553;28;20474;-78
2022/12/21 05:16:56;;;;;;;76.65;36.80;;;-3.20;99.90;;;;;;5051528;28;20024;-78
2022/12/21 05:19:23;;;;;;;71.28;33.85;;;-3.10;99.90;;;;;;5052407;28;20027;-78
2022/12/21 05:21:49;;;;;;;73.15;36.45;;;-3.20;99.90;;;;;;5052715;28;20029;-79
2022/12/21 05:24:14;;;;;;;69.15;34.03;;;-3.10;99.90;;;;;;5051465;28;20039;-77
2022/12/21 05:26:40;;;;;;;78.70;37.28;;;-3.20;99.90;;;;;;5051330;28;20025;-78
2022/12/21 05:29:06;;;;;;;77.53;35.90;;;-3.10;99.90;;;;;;5051468;28;20066;-78
2022/12/21 05:31:32;;;;;;;76.50;35.05;;;-3.20;99.90;;;;;;5052285;28;20025;-78
2022/12/21 05:33:57;;;;;;;74.38;34.70;;;-3.20;99.90;;;;;;5052476;28;20037;-78
2022/12/21 05:36:24;;;;;;;79.75;34.25;;;-3.20;99.90;;;;;;5052499;28;20032;-78
2022/12/21 05:38:50;;;;;;;74.13;33.70;;;-3.30;99.90;;;;;;5051215;28;20024;-78
2022/12/21 05:41:16;;;;;;;68.63;35.63;;;-3.30;99.90;;;;;;5047763;28;20029;-77
2022/12/21 05:43:42;;;;;;;70.97;34.35;;;-3.30;99.90;;;;;;5031540;28;20044;-77
2022/12/21 05:46:10;;;;;;;74.45;34.78;;;-3.20;99.90;;;;;;5032488;28;20483;-76
2022/12/21 05:48:36;;;;;;;73.22;33.15;;;-3.20;99.90;;;;;;5032750;28;20021;-78
2022/12/21 05:51:10;;;;;;;70.45;33.28;;;-3.20;99.90;;;;;;5031059;28;20033;-78
2022/12/21 05:53:39;;;;;;;73.00;35.30;;;-3.20;99.90;;;;;;5049669;28;20104;-79
2022/12/21 05:56:04;;;;;;;71.57;33.03;;;-3.20;99.90;;;;;;5050988;28;20063;-78
2022/12/21 05:58:30;;;;;;;84.15;34.42;;;-3.20;99.90;;;;;;5051552;28;20112;-77
2022/12/21 06:01:00;;;;;;;70.78;33.53;;;-3.20;99.90;;;;;;5055968;28;20064;-78
2022/12/21 06:03:25;;;;;;;68.75;33.67;;;-3.10;99.90;;;;;;5054718;28;20053;-77
2022/12/21 06:05:51;;;;;;;76.22;36.03;;;-3.10;99.90;;;;;;5054513;28;20052;-78
2022/12/21 06:08:16;;;;;;;78.93;32.25;;;-3.00;99.90;;;;;;5055261;28;20021;-79
2022/12/21 06:10:42;;;;;;;76.90;35.03;;;-3.00;99.90;;;;;;5053996;28;20029;-78
2022/12/21 06:13:07;;;;;;;150.43;60.83;;;-3.10;99.90;;;;;;5054950;28;20501;-79
2022/12/21 06:15:33;;;;;;;94.93;40.13;;;-3.00;99.90;;;;;;5054756;28;20560;-77
2022/12/21 06:17:59;;;;;;;83.53;39.30;;;-2.90;99.90;;;;;;5053976;28;20020;-79
2022/12/21 06:20:24;;;;;;;71.15;33.00;;;-2.90;99.90;;;;;;5054867;28;20087;-76
2022/12/21 06:22:50;;;;;;;80.45;37.30;;;-2.80;99.90;;;;;;5054276;28;20020;-79
2022/12/21 06:25:15;;;;;;;81.00;36.03;;;-2.80;99.90;;;;;;5055510;28;20495;-79
2022/12/21 06:27:41;;;;;;;81.35;37.90;;;-2.70;99.90;;;;;;5055389;28;20017;-79
2022/12/21 06:30:07;;;;;;;76.18;34.70;;;-2.60;99.90;;;;;;5054061;28;20021;-79
2022/12/21 06:32:32;;;;;;;105.72;46.30;;;-2.50;99.90;;;;;;5055322;28;20037;-79
2022/12/21 06:34:58;;;;;;;110.30;48.70;;;-2.50;99.90;;;;;;5053806;28;20035;-80
2022/12/21 06:37:23;;;;;;;109.45;46.08;;;-2.50;99.90;;;;;;5055051;28;20070;-79
2022/12/21 06:39:49;;;;;;;446.38;152.65;;;-2.50;99.90;;;;;;5054653;28;20029;-79
2022/12/21 06:42:15;;;;;;;224.82;80.38;;;-2.40;99.90;;;;;;5054743;28;20083;-79
2022/12/21 06:44:40;;;;;;;115.78;43.08;;;-2.40;99.90;;;;;;5055148;28;20029;-77
2022/12/21 06:47:06;;;;;;;75.22;37.33;;;-2.30;99.90;;;;;;5054044;28;20028;-77
2022/12/21 06:49:31;;;;;;;82.85;35.05;;;-2.30;99.90;;;;;;5052686;28;20009;-79
2022/12/21 06:51:57;;;;;;;68.13;32.65;;;-2.20;99.90;;;;;;5053200;28;20100;-79
2022/12/21 06:54:23;;;;;;;136.88;50.92;;;-2.20;99.90;;;;;;5054432;28;20033;-79
2022/12/21 06:56:48;;;;;;;204.48;76.47;;;-2.10;99.90;;;;;;5052888;28;20040;-79
2022/12/21 06:59:14;;;;;;;105.82;43.65;;;-2.00;99.90;;;;;;5052768;28;20145;-78
2022/12/21 07:01:39;;;;;;;141.88;69.82;;;-2.00;99.90;;;;;;5053564;28;20029;-77
2022/12/21 07:04:05;;;;;;;200.80;89.82;;;-1.90;99.90;;;;;;5052944;28;20025;-77
2022/12/21 07:06:31;;;;;;;158.75;72.57;;;-1.90;99.90;;;;;;5053374;28;20029;-77
2022/12/21 07:08:57;;;;;;;83.47;38.97;;;-1.70;99.90;;;;;;5052799;28;20021;-77
2022/12/21 07:11:28;;;;;;;180.57;73.35;;;-1.70;99.90;;;;;;5052062;28;20025;-77
2022/12/21 07:13:54;;;;;;;194.40;79.10;;;-1.60;99.90;;;;;;5053207;28;20501;-79
2022/12/21 07:16:21;;;;;;;76.68;40.13;;;-1.50;99.90;;;;;;5053126;28;20057;-77
2022/12/21 07:18:50;;;;;;;76.15;34.10;;;-1.40;99.90;;;;;;5054446;28;20392;-77
2022/12/21 07:21:19;;;;;;;71.72;31.33;;;-1.30;99.90;;;;;;5054457;28;20123;-79
2022/12/21 07:23:45;;;;;;;71.10;33.88;;;-1.30;99.90;;;;;;5054282;28;20043;-78
2022/12/21 07:26:19;;;;;;;81.00;36.60;;;-1.20;99.90;;;;;;5054265;28;20025;-77
2022/12/21 07:28:47;;;;;;;78.35;32.33;;;-1.10;99.90;;;;;;5052977;28;20512;-77
2022/12/21 07:31:17;;;;;;;64.75;28.73;;;-1.10;99.90;;;;;;5052958;28;20488;-79
2022/12/21 07:33:44;;;;;;;85.70;41.67;;;-1.10;99.90;;;;;;5053835;28;20128;-77
2022/12/21 07:36:10;;;;;;;64.32;31.50;;;-1.00;99.90;;;;;;5052885;28;20021;-79
2022/12/21 07:38:38;;;;;;;126.68;63.83;;;-0.90;99.90;;;;;;5054114;28;20040;-77
2022/12/21 07:41:05;;;;;;;126.50;55.33;;;-0.90;99.90;;;;;;5048833;28;20108;-79
2022/12/21 07:43:32;;;;;;;130.85;55.53;;;-0.90;99.90;;;;;;5033909;28;20021;-79
2022/12/21 07:45:57;;;;;;;87.72;39.72;;;-0.80;99.90;;;;;;5052376;28;20367;-79
2022/12/21 07:48:23;;;;;;;132.25;55.35;;;-0.80;99.90;;;;;;5053603;28;20051;-80
2022/12/21 07:50:49;;;;;;;219.73;82.35;;;-0.90;99.90;;;;;;5053009;28;20025;-76
2022/12/21 07:53:16;;;;;;;147.30;60.30;;;-0.80;99.90;;;;;;5068903;28;20036;-80
2022/12/21 07:55:42;;;;;;;82.95;38.92;;;-0.80;99.90;;;;;;5052538;28;20586;-79
2022/12/21 07:58:08;;;;;;;110.10;46.58;;;-0.70;99.90;;;;;;5050017;28;20005;-79
2022/12/21 08:00:34;;;;;;;120.43;51.25;;;-0.70;99.90;;;;;;5052616;28;20378;-80
2022/12/21 08:03:00;;;;;;;76.10;35.47;;;-0.70;99.90;;;;;;5050200;28;20025;-76
2022/12/21 08:05:26;;;;;;;77.80;34.10;;;-0.70;99.90;;;;;;5051974;28;20028;-79
2022/12/21 08:07:52;;;;;;;76.50;35.13;;;-0.60;99.90;;;;;;5047697;28;20049;-76
2022/12/21 08:10:18;;;;;;;77.75;34.20;;;-0.60;99.90;;;;;;5047046;28;20028;-76
2022/12/21 08:12:43;;;;;;;94.88;51.15;;;-0.60;99.90;;;;;;5052318;28;20629;-76
2022/12/21 08:15:09;;;;;;;78.40;38.22;;;-0.50;99.90;;;;;;5051316;28;20036;-76
2022/12/21 08:17:35;;;;;;;70.30;35.03;;;-0.40;99.90;;;;;;5051459;28;20029;-76
2022/12/21 08:20:02;;;;;;;74.15;35.45;;;-0.30;99.90;;;;;;5050834;28;20126;-79
2022/12/21 08:22:28;;;;;;;73.55;34.70;;;-0.30;99.90;;;;;;5053331;28;20031;-79
2022/12/21 08:24:54;;;;;;;73.35;33.50;;;-0.20;99.90;;;;;;5051361;28;20021;-76
2022/12/21 08:27:19;;;;;;;79.18;34.55;;;-0.20;99.90;;;;;;5052121;28;20025;-76
2022/12/21 08:29:45;;;;;;;84.15;42.63;;;-0.10;99.90;;;;;;5051965;28;20074;-76
2022/12/21 08:32:11;;;;;;;89.40;41.42;;;-0.10;99.90;;;;;;5051210;28;20021;-77
2022/12/21 08:34:36;;;;;;;78.03;36.97;;;-0.10;99.90;;;;;;5050523;28;20051;-79
2022/12/21 08:37:02;;;;;;;74.95;32.40;;;-0.10;99.90;;;;;;5050413;28;20028;-76
2022/12/21 08:39:28;;;;;;;68.97;33.83;;;0.00;99.90;;;;;;5048879;28;20060;-76
2022/12/21 08:41:53;;;;;;;61.40;31.52;;;0.00;99.90;;;;;;5049199;28;20553;-79
2022/12/21 08:44:19;;;;;;;69.18;35.55;;;-0.10;99.90;;;;;;5050936;28;20021;-76
2022/12/21 08:46:44;;;;;;;77.47;39.75;;;0.00;99.90;;;;;;5049825;28;20021;-79
2022/12/21 08:49:10;;;;;;;80.57;43.95;;;0.00;99.90;;;;;;5051881;28;20441;-78
2022/12/21 08:51:37;;;;;;;87.85;47.35;;;0.00;99.90;;;;;;5051811;28;20029;-76
2022/12/21 08:54:04;;;;;;;91.88;43.15;;;0.00;99.90;;;;;;5053163;28;20116;-76
2022/12/21 08:56:30;;;;;;;89.40;40.58;;;0.00;99.90;;;;;;5053100;28;20382;-76
2022/12/21 08:59:00;;;;;;;75.55;39.00;;;0.00;99.90;;;;;;5053129;28;20017;-76
2022/12/21 09:01:26;;;;;;;63.03;30.85;;;0.00;99.90;;;;;;5052917;28;20062;-79
2022/12/21 09:03:52;;;;;;;60.15;29.58;;;0.00;99.90;;;;;;5052761;28;20033;-79
2022/12/21 09:06:17;;;;;;;61.90;32.00;;;0.10;99.90;;;;;;5053114;28;20033;-79
2022/12/21 09:08:43;;;;;;;54.80;29.42;;;0.10;99.90;;;;;;5053041;28;20394;-79
2022/12/21 09:11:11;;;;;;;59.00;29.27;;;0.10;99.90;;;;;;5052982;28;20021;-79
2022/12/21 09:13:37;;;;;;;69.05;30.95;;;0.20;99.90;;;;;;5052802;28;20040;-76
2022/12/21 09:16:10;;;;;;;64.28;29.42;;;0.30;99.90;;;;;;5052916;28;20379;-79
2022/12/21 09:18:35;;;;;;;64.43;28.48;;;0.30;99.90;;;;;;5052920;28;20052;-79
2022/12/21 09:21:01;;;;;;;64.07;29.88;;;0.40;99.90;;;;;;5052560;28;20416;-79
2022/12/21 09:23:27;;;;;;;82.32;37.33;;;0.50;99.90;;;;;;5052734;28;20028;-76
2022/12/21 09:25:52;;;;;;;59.83;32.38;;;0.50;99.90;;;;;;5052795;28;20029;-76
2022/12/21 09:28:18;;;;;;;72.13;34.78;;;0.50;99.90;;;;;;5052838;28;20029;-79
2022/12/21 09:30:43;;;;;;;68.20;33.90;;;0.60;99.90;;;;;;5052959;28;20104;-79
2022/12/21 09:33:09;;;;;;;76.75;34.50;;;0.60;99.90;;;;;;5052677;28;20044;-76
2022/12/21 09:35:36;;;;;;;66.18;33.20;;;0.60;99.90;;;;;;5055232;28;20029;-76
2022/12/21 09:38:03;;;;;;;71.20;31.45;;;0.60;99.90;;;;;;5056520;28;20363;-76
2022/12/21 09:40:31;;;;;;;68.30;34.28;;;0.60;99.90;;;;;;5056419;28;20100;-76
2022/12/21 09:43:05;;;;;;;63.33;33.10;;;0.70;99.90;;;;;;5056562;28;20017;-79
2022/12/21 09:45:53;;;;;;;75.85;35.83;;;0.70;99.90;;;;;;5056490;28;20028;-76
2022/12/21 09:48:23;;;;;;;101.88;46.05;;;0.70;99.90;;;;;;5056306;28;20028;-76
2022/12/21 09:50:57;;;;;;;79.32;38.00;;;0.70;99.90;;;;;;5056189;28;20040;-76
2022/12/21 09:53:28;;;;;;;73.43;34.60;;;0.80;99.90;;;;;;5056134;28;20029;-76
2022/12/21 09:55:56;;;;;;;109.65;49.65;;;0.70;99.90;;;;;;5054859;28;20488;-76
2022/12/21 09:58:31;;;;;;;108.45;53.35;;;0.80;99.90;;;;;;5056094;28;20028;-76
2022/12/21 10:01:07;;;;;;;115.53;51.13;;;0.80;99.90;;;;;;5056053;28;20105;-79
2022/12/21 10:04:06;;;;;;;99.38;46.13;;;0.80;99.90;;;;;;5056206;28;20096;-79
2022/12/21 10:07:09;;;;;;;115.20;49.85;;;0.90;99.90;;;;;;5056063;28;20025;-79
2022/12/21 10:09:56;;;;;;;102.40;41.88;;;0.90;99.90;;;;;;5054652;28;20402;-76
2022/12/21 10:12:49;;;;;;;72.95;35.05;;;0.90;99.90;;;;;;5056071;28;20429;-79
2022/12/21 10:15:45;;;;;;;70.13;33.45;;;0.90;99.90;;;;;;5044088;28;20017;-79
2022/12/21 10:18:35;;;;;;;75.55;36.75;;;1.00;99.90;;;;;;5055870;28;20021;-76
2022/12/21 10:21:20;;;;;;;65.47;33.03;;;1.00;99.90;;;;;;5054335;28;20404;-79
2022/12/21 10:23:49;;;;;;;225.57;97.28;;;1.00;99.90;;;;;;5055776;28;20025;-76
2022/12/21 10:26:19;;;;;;;189.52;82.65;;;1.10;99.90;;;;;;5055493;28;20024;-76
2022/12/21 10:28:53;;;;;;;149.88;68.70;;;1.20;99.90;;;;;;5054499;28;20024;-76
2022/12/21 10:31:34;;;;;;;160.02;67.57;;;1.20;99.90;;;;;;5055473;28;20048;-78
2022/12/21 10:34:01;;;;;;;72.32;37.03;;;1.20;99.90;;;;;;5055478;28;20052;-79
2022/12/21 10:36:34;;;;;;;75.13;34.13;;;1.20;99.90;;;;;;5055479;28;20021;-76
2022/12/21 10:39:00;;;;;;;75.25;39.28;;;1.20;99.90;;;;;;5054318;28;20079;-76
2022/12/21 10:41:33;;;;;;;79.85;40.75;;;1.20;99.90;;;;;;5055301;28;20458;-76
2022/12/21 10:43:59;;;;;;;;;;;1.20;99.90;;;;;;5056176;28;20024;-79
2022/12/21 10:46:34;;;;;;;213.88;94.85;;;1.30;99.90;;;;;;5054061;28;19908;-76
2022/12/21 10:49:10;;;;;;;126.40;61.15;;;1.40;99.90;;;;;;5055220;28;20036;-76
2022/12/21 10:51:36;;;;;;;114.13;61.55;;;1.40;99.90;;;;;;5055024;28;20096;-79
2022/12/21 10:54:07;;;;;;;119.85;67.88;;;1.30;99.90;;;;;;5053844;28;20455;-78
2022/12/21 10:56:42;;;;;;;101.18;63.97;;;1.30;99.90;;;;;;5055190;28;20057;-79
2022/12/21 10:59:43;;;;;;;76.25;42.05;;;1.30;99.90;;;;;;5055238;28;20459;-79
2022/12/21 11:02:47;;;;;;;81.55;41.15;;;1.20;99.90;;;;;;5053046;28;20108;-76
2022/12/21 11:05:30;;;;;;;;;;;1.20;99.90;;;;;;5054068;28;20108;-76
2022/12/21 11:08:21;;;;;;;83.13;39.30;;;1.20;99.90;;;;;;5055091;28;20392;-76
2022/12/21 11:10:52;;;;;;;76.50;36.72;;;1.20;99.90;;;;;;5054796;28;20275;-76
2022/12/21 11:13:21;;;;;;;72.60;37.72;;;1.20;99.90;;;;;;5054536;28;20033;-79
2022/12/21 11:16:06;;;;;;;67.18;34.17;;;1.20;99.90;;;;;;5047140;28;20014;-76
2022/12/21 11:18:49;;;;;;;71.18;34.70;;;1.20;99.90;;;;;;5034471;28;20101;-76
2022/12/21 11:21:30;;;;;;;70.03;35.40;;;1.20;99.90;;;;;;5033351;28;20049;-79
2022/12/21 11:23:58;;;;;;;67.35;36.55;;;1.20;99.90;;;;;;5034481;28;20047;-79
2022/12/21 11:26:32;;;;;;;67.80;35.38;;;1.20;99.90;;;;;;5031962;28;20021;-76
2022/12/21 11:29:00;;;;;;;66.70;33.72;;;1.30;99.90;;;;;;5033227;28;20104;-76
2022/12/21 11:31:29;;;;;;;64.15;32.95;;;1.20;99.90;;;;;;5034393;28;20107;-80
2022/12/21 11:33:54;;;;;;;63.10;32.03;;;1.20;99.90;;;;;;5034247;28;20048;-76
2022/12/21 11:36:20;;;;;;;59.75;31.13;;;1.20;99.90;;;;;;5033104;28;20467;-76
2022/12/21 11:38:46;;;;;;;63.97;33.13;;;1.20;99.90;;;;;;5033154;28;20057;-79
2022/12/21 11:41:20;;;;;;;66.82;31.52;;;1.20;99.90;;;;;;5034355;28;20039;-76
2022/12/21 11:43:48;;;;;;;75.13;39.42;;;1.20;99.90;;;;;;5034341;28;20026;-79
2022/12/21 11:46:32;;;;;;;148.95;77.07;;;1.20;99.90;;;;;;5034149;28;20028;-79
2022/12/21 11:49:30;;;;;;;141.75;70.95;;;1.20;99.90;;;;;;5034251;28;20033;-79
2022/12/21 11:52:23;;;;;;;126.28;58.67;;;1.20;99.90;;;;;;5027181;28;20106;-76
2022/12/21 11:55:22;;;;;;;103.43;45.20;;;1.20;99.90;;;;;;5054170;28;20056;-77
2022/12/21 11:58:26;;;;;;;112.70;46.72;;;1.20;99.90;;;;;;5052475;28;20475;-76
2022/12/21 12:01:01;;;;;;;79.07;41.22;;;1.20;99.90;;;;;;5052488;28;20425;-76
2022/12/21 12:03:51;;;;;;;100.22;45.60;;;1.20;99.90;;;;;;5053956;28;20028;-79
2022/12/21 12:06:55;;;;;;;140.00;57.58;;;1.20;99.90;;;;;;5053775;28;20028;-76
2022/12/21 12:09:27;;;;;;;93.75;46.20;;;1.20;99.90;;;;;;5042321;28;20033;-76
2022/12/21 12:11:58;;;;;;;88.63;43.72;;;1.20;99.90;;;;;;5053675;28;20045;-79
2022/12/21 12:14:55;;;;;;;73.05;38.55;;;1.20;99.90;;;;;;5052155;28;20537;-76
2022/12/21 12:18:04;;;;;;;77.90;41.28;;;1.20;99.90;;;;;;5051849;28;20025;-79
2022/12/21 12:20:41;;;;;;;73.00;37.63;;;1.20;99.90;;;;;;5051997;28;20045;-79
2022/12/21 12:23:51;;;;;;;70.32;37.28;;;1.20;99.90;;;;;;5053262;28;20017;-79
2022/12/21 12:26:55;;;;;;;75.75;37.42;;;1.30;99.90;;;;;;5053453;28;20021;-79
2022/12/21 12:29:44;;;;;;;82.57;41.05;;;1.30;99.90;;;;;;5051567;28;20025;-79
2022/12/21 12:32:17;;;;;;;76.35;42.05;;;1.30;99.90;;;;;;5052042;28;20029;-76
2022/12/21 12:35:20;;;;;;;71.85;37.47;;;1.30;99.90;;;;;;5053333;28;20060;-78
2022/12/21 12:37:49;;;;;;;77.20;37.95;;;1.30;99.90;;;;;;5052047;28;20067;-79
2022/12/21 12:40:36;;;;;;;81.05;39.97;;;1.30;99.90;;;;;;5052003;28;20055;-76
2022/12/21 12:43:34;;;;;;;82.55;46.13;;;1.30;99.90;;;;;;5053057;28;20108;-79
2022/12/21 12:46:20;;;;;;;83.03;47.50;;;1.40;99.90;;;;;;5053292;28;20082;-76
2022/12/21 12:49:37;;;;;;;79.55;45.38;;;1.30;99.90;;;;;;5053328;28;20064;-76
2022/12/21 12:52:47;;;;;;;102.97;54.28;;;1.40;99.90;;;;;;5030242;28;20052;-76
2022/12/21 12:55:22;;;;;;;128.65;56.10;;;1.40;99.90;;;;;;5043994;28;20095;-76
2022/12/21 12:58:04;;;;;;;137.52;62.10;;;1.40;99.90;;;;;;5051799;28;20439;-76
2022/12/21 13:00:39;;;;;;;120.45;63.30;;;1.40;99.90;;;;;;5053095;28;20021;-78
2022/12/21 13:03:19;;;;;;;109.65;61.10;;;1.40;99.90;;;;;;5053058;28;20191;-79